Lostant, Illinois
Current Conditions -  °F | °C
As of 11:15 AM on Thursday 27 Nov 2014 (Local Time) from KVYS Reporting Station
Overcast Overcast  
Wind Chill: -10°   Ceiling: 3700
Heat Index: -3°   Visibility: 10mi
Dew Point: -7°   Wind: 18mph
Humidity: 75%   Direction: 310°NW
Pressure: 30.39"   Gusts: 25mph
Location:  41.14°N, 89.06°W
Report Text: KVYS 271715Z AUTO 31016G22KT 10SM SCT014 SCT019 OVC037 M03/M07 A3039 RMK AO2 T10301069
Loading
Personal Weather Stations






























Interactive Weather Map New forecast layout! Learn more

10-Day Weather Forecast

Advertisements
Track Severe Weather on mobile